sensor_id;sensor_type;location;lat;lon;timestamp;P1;durP1;ratioP1;P2;durP2;ratioP2
9986;SDS011;5033;46.310;11.214;2023-05-07T00:01:29;2.60;;;2.47;;
9986;SDS011;5033;46.310;11.214;2023-05-07T00:03:57;3.10;;;2.85;;
9986;SDS011;5033;46.310;11.214;2023-05-07T00:06:24;2.97;;;2.78;;
9986;SDS011;5033;46.310;11.214;2023-05-07T00:08:54;2.70;;;2.50;;
9986;SDS011;5033;46.310;11.214;2023-05-07T00:11:20;3.30;;;3.10;;
9986;SDS011;5033;46.310;11.214;2023-05-07T00:13:47;3.17;;;2.97;;
9986;SDS011;5033;46.310;11.214;2023-05-07T00:16:15;3.22;;;3.03;;
9986;SDS011;5033;46.310;11.214;2023-05-07T00:18:41;3.10;;;2.90;;
9986;SDS011;5033;46.310;11.214;2023-05-07T00:21:10;3.25;;;3.05;;
9986;SDS011;5033;46.310;11.214;2023-05-07T00:23:37;2.92;;;2.72;;
9986;SDS011;5033;46.310;11.214;2023-05-07T00:26:04;3.33;;;3.13;;
9986;SDS011;5033;46.310;11.214;2023-05-07T00:28:31;2.67;;;2.50;;
9986;SDS011;5033;46.310;11.214;2023-05-07T00:30:58;3.35;;;3.05;;
9986;SDS011;5033;46.310;11.214;2023-05-07T00:33:24;3.20;;;3.00;;
9986;SDS011;5033;46.310;11.214;2023-05-07T00:35:52;3.40;;;3.10;;
9986;SDS011;5033;46.310;11.214;2023-05-07T00:38:21;3.10;;;2.90;;
9986;SDS011;5033;46.310;11.214;2023-05-07T00:40:48;3.05;;;2.85;;
9986;SDS011;5033;46.310;11.214;2023-05-07T00:43:16;2.97;;;2.78;;
9986;SDS011;5033;46.310;11.214;2023-05-07T00:45:43;3.15;;;2.85;;
9986;SDS011;5033;46.310;11.214;2023-05-07T00:48:10;3.10;;;2.90;;
9986;SDS011;5033;46.310;11.214;2023-05-07T00:50:38;3.00;;;2.80;;
9986;SDS011;5033;46.310;11.214;2023-05-07T00:53:05;2.88;;;2.70;;
9986;SDS011;5033;46.310;11.214;2023-05-07T00:55:35;2.90;;;2.70;;
9986;SDS011;5033;46.310;11.214;2023-05-07T00:58:02;2.60;;;2.50;;
9986;SDS011;5033;46.310;11.214;2023-05-07T01:00:29;2.72;;;2.53;;
9986;SDS011;5033;46.310;11.214;2023-05-07T01:02:56;2.70;;;2.55;;
9986;SDS011;5033;46.310;11.214;2023-05-07T01:05:24;2.90;;;2.70;;
9986;SDS011;5033;46.310;11.214;2023-05-07T01:07:52;2.95;;;2.75;;
9986;SDS011;5033;46.310;11.214;2023-05-07T01:10:20;3.00;;;2.80;;
9986;SDS011;5033;46.310;11.214;2023-05-07T01:12:50;2.92;;;2.72;;
9986;SDS011;5033;46.310;11.214;2023-05-07T01:15:17;4.03;;;3.17;;
9986;SDS011;5033;46.310;11.214;2023-05-07T01:17:45;3.15;;;2.95;;
9986;SDS011;5033;46.310;11.214;2023-05-07T01:20:12;3.58;;;3.28;;
9986;SDS011;5033;46.310;11.214;2023-05-07T01:22:42;2.88;;;2.67;;
9986;SDS011;5033;46.310;11.214;2023-05-07T01:25:09;3.05;;;2.85;;
9986;SDS011;5033;46.310;11.214;2023-05-07T01:27:36;2.80;;;2.60;;
9986;SDS011;5033;46.310;11.214;2023-05-07T01:30:03;3.08;;;2.88;;
9986;SDS011;5033;46.310;11.214;2023-05-07T01:32:32;3.50;;;3.28;;
9986;SDS011;5033;46.310;11.214;2023-05-07T01:35:02;3.28;;;3.00;;
9986;SDS011;5033;46.310;11.214;2023-05-07T01:37:31;3.50;;;3.20;;
9986;SDS011;5033;46.310;11.214;2023-05-07T01:40:00;2.90;;;2.58;;
9986;SDS011;5033;46.310;11.214;2023-05-07T01:42:28;3.42;;;3.13;;
9986;SDS011;5033;46.310;11.214;2023-05-07T01:44:55;3.22;;;3.03;;
9986;SDS011;5033;46.310;11.214;2023-05-07T01:47:22;3.30;;;3.10;;
9986;SDS011;5033;46.310;11.214;2023-05-07T01:49:50;3.20;;;3.00;;
9986;SDS011;5033;46.310;11.214;2023-05-07T01:52:17;2.63;;;2.50;;
9986;SDS011;5033;46.310;11.214;2023-05-07T01:54:44;3.03;;;2.83;;
9986;SDS011;5033;46.310;11.214;2023-05-07T01:57:12;2.95;;;2.75;;
9986;SDS011;5033;46.310;11.214;2023-05-07T01:59:39;2.80;;;2.60;;
9986;SDS011;5033;46.310;11.214;2023-05-07T02:02:06;2.88;;;2.67;;
9986;SDS011;5033;46.310;11.214;2023-05-07T02:04:33;2.80;;;2.60;;
9986;SDS011;5033;46.310;11.214;2023-05-07T02:07:00;2.70;;;2.50;;
9986;SDS011;5033;46.310;11.214;2023-05-07T02:09:27;2.92;;;2.72;;
9986;SDS011;5033;46.310;11.214;2023-05-07T02:11:54;3.15;;;2.95;;
9986;SDS011;5033;46.310;11.214;2023-05-07T02:14:22;3.20;;;3.00;;
9986;SDS011;5033;46.310;11.214;2023-05-07T02:16:51;2.80;;;2.60;;
9986;SDS011;5033;46.310;11.214;2023-05-07T02:19:18;2.95;;;2.75;;
9986;SDS011;5033;46.310;11.214;2023-05-07T02:21:46;3.10;;;2.90;;
9986;SDS011;5033;46.310;11.214;2023-05-07T02:24:13;3.10;;;2.90;;
9986;SDS011;5033;46.310;11.214;2023-05-07T02:26:40;3.25;;;3.05;;
9986;SDS011;5033;46.310;11.214;2023-05-07T02:29:07;3.15;;;2.95;;
9986;SDS011;5033;46.310;11.214;2023-05-07T02:31:35;3.08;;;2.88;;
9986;SDS011;5033;46.310;11.214;2023-05-07T02:34:02;3.20;;;3.00;;
9986;SDS011;5033;46.310;11.214;2023-05-07T02:36:29;3.17;;;2.78;;
9986;SDS011;5033;46.310;11.214;2023-05-07T02:38:56;3.03;;;2.83;;
9986;SDS011;5033;46.310;11.214;2023-05-07T02:41:23;3.05;;;2.85;;
9986;SDS011;5033;46.310;11.214;2023-05-07T02:43:50;2.53;;;2.42;;
9986;SDS011;5033;46.310;11.214;2023-05-07T02:46:17;2.78;;;2.58;;
9986;SDS011;5033;46.310;11.214;2023-05-07T02:48:45;3.17;;;2.92;;
9986;SDS011;5033;46.310;11.214;2023-05-07T02:51:12;2.78;;;2.65;;
9986;SDS011;5033;46.310;11.214;2023-05-07T02:53:40;2.95;;;2.75;;
9986;SDS011;5033;46.310;11.214;2023-05-07T02:56:06;3.08;;;2.83;;
9986;SDS011;5033;46.310;11.214;2023-05-07T02:58:33;3.10;;;2.90;;
9986;SDS011;5033;46.310;11.214;2023-05-07T03:01:00;3.00;;;2.80;;
9986;SDS011;5033;46.310;11.214;2023-05-07T03:03:27;3.35;;;3.05;;
9986;SDS011;5033;46.310;11.214;2023-05-07T03:05:55;3.28;;;3.08;;
9986;SDS011;5033;46.310;11.214;2023-05-07T03:08:22;3.20;;;3.00;;
9986;SDS011;5033;46.310;11.214;2023-05-07T03:10:49;3.10;;;2.90;;
9986;SDS011;5033;46.310;11.214;2023-05-07T03:13:17;2.90;;;2.70;;
9986;SDS011;5033;46.310;11.214;2023-05-07T03:15:44;2.83;;;2.63;;
9986;SDS011;5033;46.310;11.214;2023-05-07T03:18:11;3.20;;;3.00;;
9986;SDS011;5033;46.310;11.214;2023-05-07T03:20:38;3.45;;;3.10;;
9986;SDS011;5033;46.310;11.214;2023-05-07T03:23:06;2.92;;;2.72;;
9986;SDS011;5033;46.310;11.214;2023-05-07T03:25:33;2.90;;;2.70;;
9986;SDS011;5033;46.310;11.214;2023-05-07T03:28:00;3.10;;;2.90;;
9986;SDS011;5033;46.310;11.214;2023-05-07T03:30:27;3.10;;;2.90;;
9986;SDS011;5033;46.310;11.214;2023-05-07T03:32:54;2.40;;;2.30;;
9986;SDS011;5033;46.310;11.214;2023-05-07T03:35:20;2.80;;;2.60;;
9986;SDS011;5033;46.310;11.214;2023-05-07T03:37:47;2.95;;;2.75;;
9986;SDS011;5033;46.310;11.214;2023-05-07T03:40:16;3.10;;;2.90;;
9986;SDS011;5033;46.310;11.214;2023-05-07T03:42:43;3.33;;;3.03;;
9986;SDS011;5033;46.310;11.214;2023-05-07T03:45:10;3.00;;;2.80;;
9986;SDS011;5033;46.310;11.214;2023-05-07T03:47:37;2.00;;;1.90;;
9986;SDS011;5033;46.310;11.214;2023-05-07T03:50:04;2.25;;;2.15;;
9986;SDS011;5033;46.310;11.214;2023-05-07T03:52:31;3.00;;;2.80;;
9986;SDS011;5033;46.310;11.214;2023-05-07T03:54:58;2.83;;;2.63;;
9986;SDS011;5033;46.310;11.214;2023-05-07T03:57:26;3.10;;;2.90;;
9986;SDS011;5033;46.310;11.214;2023-05-07T03:59:53;3.00;;;2.80;;
9986;SDS011;5033;46.310;11.214;2023-05-07T04:02:20;3.10;;;2.90;;
9986;SDS011;5033;46.310;11.214;2023-05-07T04:04:48;2.53;;;2.42;;
9986;SDS011;5033;46.310;11.214;2023-05-07T04:07:15;2.65;;;2.45;;
9986;SDS011;5033;46.310;11.214;2023-05-07T04:09:42;2.35;;;2.20;;
9986;SDS011;5033;46.310;11.214;2023-05-07T04:12:09;3.08;;;2.47;;
9986;SDS011;5033;46.310;11.214;2023-05-07T04:14:37;2.58;;;2.38;;
9986;SDS011;5033;46.310;11.214;2023-05-07T04:17:04;2.10;;;2.00;;
9986;SDS011;5033;46.310;11.214;2023-05-07T04:19:32;2.40;;;2.20;;
9986;SDS011;5033;46.310;11.214;2023-05-07T04:22:00;2.10;;;2.00;;
9986;SDS011;5033;46.310;11.214;2023-05-07T04:24:27;2.03;;;1.92;;
9986;SDS011;5033;46.310;11.214;2023-05-07T04:26:54;1.92;;;1.83;;
9986;SDS011;5033;46.310;11.214;2023-05-07T04:29:21;2.13;;;2.03;;
9986;SDS011;5033;46.310;11.214;2023-05-07T04:31:49;2.17;;;2.08;;
9986;SDS011;5033;46.310;11.214;2023-05-07T04:34:16;2.28;;;2.10;;
9986;SDS011;5033;46.310;11.214;2023-05-07T04:36:43;2.40;;;2.20;;
9986;SDS011;5033;46.310;11.214;2023-05-07T04:39:11;2.13;;;2.03;;
9986;SDS011;5033;46.310;11.214;2023-05-07T04:41:38;2.60;;;2.40;;
9986;SDS011;5033;46.310;11.214;2023-05-07T04:44:05;2.17;;;2.05;;
9986;SDS011;5033;46.310;11.214;2023-05-07T04:46:32;2.30;;;2.20;;
9986;SDS011;5033;46.310;11.214;2023-05-07T04:49:00;2.08;;;1.98;;
9986;SDS011;5033;46.310;11.214;2023-05-07T04:51:28;2.50;;;2.30;;
9986;SDS011;5033;46.310;11.214;2023-05-07T04:53:55;2.10;;;2.00;;
9986;SDS011;5033;46.310;11.214;2023-05-07T04:56:22;2.75;;;1.98;;
9986;SDS011;5033;46.310;11.214;2023-05-07T04:58:49;2.17;;;2.08;;
9986;SDS011;5033;46.310;11.214;2023-05-07T05:01:16;2.22;;;2.10;;
9986;SDS011;5033;46.310;11.214;2023-05-07T05:03:43;2.38;;;2.10;;
9986;SDS011;5033;46.310;11.214;2023-05-07T05:06:11;2.53;;;2.33;;
9986;SDS011;5033;46.310;11.214;2023-05-07T05:08:38;2.30;;;2.20;;
9986;SDS011;5033;46.310;11.214;2023-05-07T05:11:05;2.55;;;2.35;;
9986;SDS011;5033;46.310;11.214;2023-05-07T05:13:32;2.40;;;2.20;;
9986;SDS011;5033;46.310;11.214;2023-05-07T05:15:59;2.40;;;2.20;;
9986;SDS011;5033;46.310;11.214;2023-05-07T05:18:26;2.30;;;2.20;;
9986;SDS011;5033;46.310;11.214;2023-05-07T05:20:53;2.10;;;2.00;;
9986;SDS011;5033;46.310;11.214;2023-05-07T05:23:21;2.40;;;2.30;;
9986;SDS011;5033;46.310;11.214;2023-05-07T05:25:48;2.03;;;1.92;;
9986;SDS011;5033;46.310;11.214;2023-05-07T05:28:15;2.35;;;2.25;;
9986;SDS011;5033;46.310;11.214;2023-05-07T05:30:42;2.13;;;2.03;;
9986;SDS011;5033;46.310;11.214;2023-05-07T05:33:09;2.83;;;2.63;;
9986;SDS011;5033;46.310;11.214;2023-05-07T05:35:36;2.47;;;2.38;;
9986;SDS011;5033;46.310;11.214;2023-05-07T05:38:03;2.30;;;2.08;;
9986;SDS011;5033;46.310;11.214;2023-05-07T05:40:31;2.10;;;2.00;;
9986;SDS011;5033;46.310;11.214;2023-05-07T05:42:58;2.22;;;2.08;;
9986;SDS011;5033;46.310;11.214;2023-05-07T05:45:25;6.95;;;2.60;;
9986;SDS011;5033;46.310;11.214;2023-05-07T05:47:52;1.70;;;1.60;;
9986;SDS011;5033;46.310;11.214;2023-05-07T05:50:19;1.92;;;1.60;;
9986;SDS011;5033;46.310;11.214;2023-05-07T05:52:46;2.10;;;1.95;;
9986;SDS011;5033;46.310;11.214;2023-05-07T05:55:13;1.95;;;1.85;;
9986;SDS011;5033;46.310;11.214;2023-05-07T05:57:41;4.25;;;1.77;;
9986;SDS011;5033;46.310;11.214;2023-05-07T06:00:09;2.75;;;1.92;;
9986;SDS011;5033;46.310;11.214;2023-05-07T06:02:36;2.47;;;1.95;;
9986;SDS011;5033;46.310;11.214;2023-05-07T06:05:03;2.50;;;2.30;;
9986;SDS011;5033;46.310;11.214;2023-05-07T06:07:31;1.95;;;1.85;;
9986;SDS011;5033;46.310;11.214;2023-05-07T06:09:58;1.70;;;1.60;;
9986;SDS011;5033;46.310;11.214;2023-05-07T06:12:25;1.92;;;1.83;;
9986;SDS011;5033;46.310;11.214;2023-05-07T06:14:53;1.90;;;1.80;;
9986;SDS011;5033;46.310;11.214;2023-05-07T06:17:20;2.05;;;1.88;;
9986;SDS011;5033;46.310;11.214;2023-05-07T06:19:47;3.15;;;1.98;;
9986;SDS011;5033;46.310;11.214;2023-05-07T06:22:14;1.67;;;1.58;;
9986;SDS011;5033;46.310;11.214;2023-05-07T06:24:41;2.83;;;1.60;;
9986;SDS011;5033;46.310;11.214;2023-05-07T06:27:08;2.10;;;1.40;;
9986;SDS011;5033;46.310;11.214;2023-05-07T06:29:35;1.73;;;1.60;;
9986;SDS011;5033;46.310;11.214;2023-05-07T06:32:09;1.88;;;1.75;;
9986;SDS011;5033;46.310;11.214;2023-05-07T06:34:38;1.35;;;1.25;;
9986;SDS011;5033;46.310;11.214;2023-05-07T06:37:06;1.48;;;1.38;;
9986;SDS011;5033;46.310;11.214;2023-05-07T06:39:33;1.58;;;1.48;;
9986;SDS011;5033;46.310;11.214;2023-05-07T06:42:00;1.40;;;1.30;;
9986;SDS011;5033;46.310;11.214;2023-05-07T06:44:27;1.40;;;1.30;;
9986;SDS011;5033;46.310;11.214;2023-05-07T06:46:54;1.73;;;1.60;;
9986;SDS011;5033;46.310;11.214;2023-05-07T06:49:22;1.80;;;1.70;;
9986;SDS011;5033;46.310;11.214;2023-05-07T06:51:49;3.20;;;1.60;;
9986;SDS011;5033;46.310;11.214;2023-05-07T06:54:16;3.22;;;1.88;;
9986;SDS011;5033;46.310;11.214;2023-05-07T06:56:43;2.05;;;1.80;;
9986;SDS011;5033;46.310;11.214;2023-05-07T06:59:10;1.50;;;1.40;;
9986;SDS011;5033;46.310;11.214;2023-05-07T07:01:37;1.60;;;1.50;;
9986;SDS011;5033;46.310;11.214;2023-05-07T07:04:04;1.60;;;1.45;;
9986;SDS011;5033;46.310;11.214;2023-05-07T07:06:32;1.70;;;1.60;;
9986;SDS011;5033;46.310;11.214;2023-05-07T07:08:59;2.75;;;1.80;;
9986;SDS011;5033;46.310;11.214;2023-05-07T07:11:26;1.60;;;1.50;;
9986;SDS011;5033;46.310;11.214;2023-05-07T07:13:53;2.50;;;1.58;;
9986;SDS011;5033;46.310;11.214;2023-05-07T07:16:20;1.75;;;1.65;;
9986;SDS011;5033;46.310;11.214;2023-05-07T07:18:47;1.85;;;1.70;;
9986;SDS011;5033;46.310;11.214;2023-05-07T07:21:14;1.70;;;1.60;;
9986;SDS011;5033;46.310;11.214;2023-05-07T07:23:42;1.85;;;1.60;;
9986;SDS011;5033;46.310;11.214;2023-05-07T07:26:09;2.20;;;2.00;;
9986;SDS011;5033;46.310;11.214;2023-05-07T07:28:41;1.90;;;1.73;;
9986;SDS011;5033;46.310;11.214;2023-05-07T07:31:08;2.08;;;1.77;;
9986;SDS011;5033;46.310;11.214;2023-05-07T07:33:36;1.80;;;1.70;;
9986;SDS011;5033;46.310;11.214;2023-05-07T07:36:03;2.03;;;1.65;;
9986;SDS011;5033;46.310;11.214;2023-05-07T07:38:31;1.65;;;1.55;;
9986;SDS011;5033;46.310;11.214;2023-05-07T07:40:59;1.95;;;1.85;;
9986;SDS011;5033;46.310;11.214;2023-05-07T07:43:26;1.80;;;1.70;;
9986;SDS011;5033;46.310;11.214;2023-05-07T07:45:53;2.33;;;1.88;;
9986;SDS011;5033;46.310;11.214;2023-05-07T07:48:20;2.47;;;1.70;;
9986;SDS011;5033;46.310;11.214;2023-05-07T07:50:48;2.22;;;1.95;;
9986;SDS011;5033;46.310;11.214;2023-05-07T07:53:16;1.75;;;1.65;;
9986;SDS011;5033;46.310;11.214;2023-05-07T07:55:43;2.90;;;1.77;;
9986;SDS011;5033;46.310;11.214;2023-05-07T07:58:12;2.15;;;1.83;;
9986;SDS011;5033;46.310;11.214;2023-05-07T08:00:39;3.97;;;1.90;;
9986;SDS011;5033;46.310;11.214;2023-05-07T08:03:06;2.40;;;2.20;;
9986;SDS011;5033;46.310;11.214;2023-05-07T08:05:35;1.85;;;1.75;;
9986;SDS011;5033;46.310;11.214;2023-05-07T08:08:03;1.80;;;1.70;;
9986;SDS011;5033;46.310;11.214;2023-05-07T08:10:30;2.03;;;1.85;;
9986;SDS011;5033;46.310;11.214;2023-05-07T08:12:59;2.15;;;1.90;;
9986;SDS011;5033;46.310;11.214;2023-05-07T08:15:30;2.08;;;1.90;;
9986;SDS011;5033;46.310;11.214;2023-05-07T08:17:57;2.58;;;2.08;;
9986;SDS011;5033;46.310;11.214;2023-05-07T08:20:25;1.90;;;1.67;;
9986;SDS011;5033;46.310;11.214;2023-05-07T08:22:52;1.52;;;1.42;;
9986;SDS011;5033;46.310;11.214;2023-05-07T08:25:19;1.90;;;1.80;;
9986;SDS011;5033;46.310;11.214;2023-05-07T08:27:46;1.40;;;1.40;;
9986;SDS011;5033;46.310;11.214;2023-05-07T08:30:13;2.17;;;1.83;;
9986;SDS011;5033;46.310;11.214;2023-05-07T08:32:46;1.88;;;1.73;;
9986;SDS011;5033;46.310;11.214;2023-05-07T08:35:13;2.28;;;1.83;;
9986;SDS011;5033;46.310;11.214;2023-05-07T08:37:40;1.83;;;1.70;;
9986;SDS011;5033;46.310;11.214;2023-05-07T08:40:07;1.73;;;1.63;;
9986;SDS011;5033;46.310;11.214;2023-05-07T08:42:35;1.58;;;1.48;;
9986;SDS011;5033;46.310;11.214;2023-05-07T08:45:03;1.77;;;1.67;;
9986;SDS011;5033;46.310;11.214;2023-05-07T08:47:34;2.30;;;1.65;;
9986;SDS011;5033;46.310;11.214;2023-05-07T08:50:08;1.70;;;1.60;;
9986;SDS011;5033;46.310;11.214;2023-05-07T08:52:35;1.70;;;1.60;;
9986;SDS011;5033;46.310;11.214;2023-05-07T08:55:03;1.80;;;1.70;;
9986;SDS011;5033;46.310;11.214;2023-05-07T08:57:31;1.65;;;1.27;;
9986;SDS011;5033;46.310;11.214;2023-05-07T08:59:57;3.95;;;1.98;;
9986;SDS011;5033;46.310;11.214;2023-05-07T09:02:24;2.08;;;1.70;;
9986;SDS011;5033;46.310;11.214;2023-05-07T09:04:52;1.70;;;1.60;;
9986;SDS011;5033;46.310;11.214;2023-05-07T09:07:20;1.30;;;1.30;;
9986;SDS011;5033;46.310;11.214;2023-05-07T09:09:48;1.60;;;1.50;;
9986;SDS011;5033;46.310;11.214;2023-05-07T09:12:15;3.08;;;1.58;;
9986;SDS011;5033;46.310;11.214;2023-05-07T09:14:43;1.23;;;1.23;;
9986;SDS011;5033;46.310;11.214;2023-05-07T09:17:11;1.73;;;1.60;;
9986;SDS011;5033;46.310;11.214;2023-05-07T09:19:38;1.60;;;1.50;;
9986;SDS011;5033;46.310;11.214;2023-05-07T09:22:06;1.60;;;1.50;;
9986;SDS011;5033;46.310;11.214;2023-05-07T09:24:34;2.30;;;1.40;;
9986;SDS011;5033;46.310;11.214;2023-05-07T09:27:03;1.60;;;1.50;;
9986;SDS011;5033;46.310;11.214;2023-05-07T09:29:30;1.77;;;1.67;;
9986;SDS011;5033;46.310;11.214;2023-05-07T09:32:00;1.65;;;1.55;;
9986;SDS011;5033;46.310;11.214;2023-05-07T09:34:28;1.80;;;1.70;;
9986;SDS011;5033;46.310;11.214;2023-05-07T09:36:55;1.90;;;1.60;;
9986;SDS011;5033;46.310;11.214;2023-05-07T09:39:23;1.75;;;1.58;;
9986;SDS011;5033;46.310;11.214;2023-05-07T09:41:51;1.60;;;1.50;;
9986;SDS011;5033;46.310;11.214;2023-05-07T09:44:20;1.60;;;1.50;;
9986;SDS011;5033;46.310;11.214;2023-05-07T09:46:53;1.60;;;1.50;;
9986;SDS011;5033;46.310;11.214;2023-05-07T09:49:22;1.52;;;1.42;;
9986;SDS011;5033;46.310;11.214;2023-05-07T09:51:50;1.77;;;1.67;;
9986;SDS011;5033;46.310;11.214;2023-05-07T09:54:17;2.42;;;1.50;;
9986;SDS011;5033;46.310;11.214;2023-05-07T09:56:45;1.55;;;1.45;;
9986;SDS011;5033;46.310;11.214;2023-05-07T09:59:15;1.75;;;1.65;;
9986;SDS011;5033;46.310;11.214;2023-05-07T10:01:43;1.80;;;1.70;;
9986;SDS011;5033;46.310;11.214;2023-05-07T10:04:11;1.70;;;1.58;;
9986;SDS011;5033;46.310;11.214;2023-05-07T10:06:38;1.80;;;1.70;;
9986;SDS011;5033;46.310;11.214;2023-05-07T10:09:06;1.90;;;1.38;;
9986;SDS011;5033;46.310;11.214;2023-05-07T10:11:35;1.80;;;1.70;;
9986;SDS011;5033;46.310;11.214;2023-05-07T10:14:03;2.03;;;1.75;;
9986;SDS011;5033;46.310;11.214;2023-05-07T10:16:33;1.63;;;1.52;;
9986;SDS011;5033;46.310;11.214;2023-05-07T10:19:02;1.63;;;1.52;;
9986;SDS011;5033;46.310;11.214;2023-05-07T10:21:30;1.73;;;1.55;;
9986;SDS011;5033;46.310;11.214;2023-05-07T10:23:59;1.65;;;1.52;;
9986;SDS011;5033;46.310;11.214;2023-05-07T10:26:31;1.58;;;1.48;;
9986;SDS011;5033;46.310;11.214;2023-05-07T10:29:01;1.63;;;1.52;;
9986;SDS011;5033;46.310;11.214;2023-05-07T10:31:37;1.80;;;1.70;;
9986;SDS011;5033;46.310;11.214;2023-05-07T10:34:18;1.60;;;1.50;;
9986;SDS011;5033;46.310;11.214;2023-05-07T10:36:49;1.90;;;1.80;;
9986;SDS011;5033;46.310;11.214;2023-05-07T10:39:18;2.08;;;1.50;;
9986;SDS011;5033;46.310;11.214;2023-05-07T10:41:46;1.73;;;1.63;;
9986;SDS011;5033;46.310;11.214;2023-05-07T10:44:24;1.58;;;1.40;;
9986;SDS011;5033;46.310;11.214;2023-05-07T10:47:07;2.40;;;1.92;;
9986;SDS011;5033;46.310;11.214;2023-05-07T10:49:36;1.60;;;1.50;;
9986;SDS011;5033;46.310;11.214;2023-05-07T10:52:23;1.67;;;1.58;;
9986;SDS011;5033;46.310;11.214;2023-05-07T10:55:18;1.90;;;1.80;;
9986;SDS011;5033;46.310;11.214;2023-05-07T10:57:46;1.40;;;1.30;;
9986;SDS011;5033;46.310;11.214;2023-05-07T11:03:11;1.85;;;1.75;;
9986;SDS011;5033;46.310;11.214;2023-05-07T11:05:39;1.70;;;1.60;;
9986;SDS011;5033;46.310;11.214;2023-05-07T11:08:07;1.58;;;1.48;;
9986;SDS011;5033;46.310;11.214;2023-05-07T11:10:47;1.60;;;1.50;;
9986;SDS011;5033;46.310;11.214;2023-05-07T11:16:19;1.67;;;1.58;;
9986;SDS011;5033;46.310;11.214;2023-05-07T11:18:49;2.10;;;1.38;;
9986;SDS011;5033;46.310;11.214;2023-05-07T11:21:33;1.65;;;1.55;;
9986;SDS011;5033;46.310;11.214;2023-05-07T11:24:01;1.80;;;1.70;;
9986;SDS011;5033;46.310;11.214;2023-05-07T11:26:29;1.60;;;1.50;;
9986;SDS011;5033;46.310;11.214;2023-05-07T11:28:57;1.55;;;1.45;;
9986;SDS011;5033;46.310;11.214;2023-05-07T11:31:26;2.10;;;1.90;;
9986;SDS011;5033;46.310;11.214;2023-05-07T11:33:56;1.90;;;1.50;;
9986;SDS011;5033;46.310;11.214;2023-05-07T11:36:24;2.75;;;1.95;;
9986;SDS011;5033;46.310;11.214;2023-05-07T11:38:52;2.05;;;1.88;;
9986;SDS011;5033;46.310;11.214;2023-05-07T11:41:19;1.83;;;1.73;;
9986;SDS011;5033;46.310;11.214;2023-05-07T11:43:53;2.80;;;1.90;;
9986;SDS011;5033;46.310;11.214;2023-05-07T11:46:22;2.20;;;2.00;;
9986;SDS011;5033;46.310;11.214;2023-05-07T11:48:49;1.90;;;1.80;;
9986;SDS011;5033;46.310;11.214;2023-05-07T11:51:20;1.92;;;1.83;;
9986;SDS011;5033;46.310;11.214;2023-05-07T11:53:48;2.13;;;1.80;;
9986;SDS011;5033;46.310;11.214;2023-05-07T11:56:16;4.10;;;2.05;;
9986;SDS011;5033;46.310;11.214;2023-05-07T11:58:44;2.40;;;2.20;;
9986;SDS011;5033;46.310;11.214;2023-05-07T12:01:13;2.30;;;2.10;;
9986;SDS011;5033;46.310;11.214;2023-05-07T12:03:41;2.15;;;2.05;;
9986;SDS011;5033;46.310;11.214;2023-05-07T12:06:11;2.13;;;1.80;;
9986;SDS011;5033;46.310;11.214;2023-05-07T12:08:40;2.35;;;2.17;;
9986;SDS011;5033;46.310;11.214;2023-05-07T12:11:08;2.33;;;2.15;;
9986;SDS011;5033;46.310;11.214;2023-05-07T12:13:36;2.10;;;2.00;;
9986;SDS011;5033;46.310;11.214;2023-05-07T12:16:05;2.08;;;1.95;;
9986;SDS011;5033;46.310;11.214;2023-05-07T12:18:33;2.00;;;1.90;;
9986;SDS011;5033;46.310;11.214;2023-05-07T12:21:01;2.25;;;1.70;;
9986;SDS011;5033;46.310;11.214;2023-05-07T12:23:30;1.75;;;1.65;;
9986;SDS011;5033;46.310;11.214;2023-05-07T12:25:58;2.10;;;1.90;;
9986;SDS011;5033;46.310;11.214;2023-05-07T12:28:26;2.33;;;1.85;;
9986;SDS011;5033;46.310;11.214;2023-05-07T12:30:53;1.63;;;1.52;;
9986;SDS011;5033;46.310;11.214;2023-05-07T12:33:23;1.85;;;1.70;;
9986;SDS011;5033;46.310;11.214;2023-05-07T12:35:52;1.73;;;1.63;;
9986;SDS011;5033;46.310;11.214;2023-05-07T12:38:20;1.88;;;1.77;;
9986;SDS011;5033;46.310;11.214;2023-05-07T12:40:48;2.08;;;1.65;;
9986;SDS011;5033;46.310;11.214;2023-05-07T12:43:26;1.60;;;1.50;;
9986;SDS011;5033;46.310;11.214;2023-05-07T12:45:54;1.60;;;1.50;;
9986;SDS011;5033;46.310;11.214;2023-05-07T12:48:22;1.80;;;1.70;;
9986;SDS011;5033;46.310;11.214;2023-05-07T12:50:52;1.70;;;1.60;;
9986;SDS011;5033;46.310;11.214;2023-05-07T12:53:20;2.28;;;1.60;;
9986;SDS011;5033;46.310;11.214;2023-05-07T12:55:48;2.03;;;1.83;;
9986;SDS011;5033;46.310;11.214;2023-05-07T12:58:19;1.60;;;1.50;;
9986;SDS011;5033;46.310;11.214;2023-05-07T13:00:47;1.50;;;1.40;;
9986;SDS011;5033;46.310;11.214;2023-05-07T13:03:20;1.60;;;1.50;;
9986;SDS011;5033;46.310;11.214;2023-05-07T13:05:49;1.60;;;1.50;;
9986;SDS011;5033;46.310;11.214;2023-05-07T13:08:26;1.70;;;1.60;;
9986;SDS011;5033;46.310;11.214;2023-05-07T13:10:54;1.50;;;1.40;;
9986;SDS011;5033;46.310;11.214;2023-05-07T13:13:24;3.33;;;1.90;;
9986;SDS011;5033;46.310;11.214;2023-05-07T13:15:51;1.60;;;1.50;;
9986;SDS011;5033;46.310;11.214;2023-05-07T13:18:18;1.65;;;1.55;;
9986;SDS011;5033;46.310;11.214;2023-05-07T13:20:45;1.13;;;1.13;;
9986;SDS011;5033;46.310;11.214;2023-05-07T13:23:11;2.05;;;1.55;;
9986;SDS011;5033;46.310;11.214;2023-05-07T13:25:38;1.35;;;1.20;;
9986;SDS011;5033;46.310;11.214;2023-05-07T13:28:05;1.52;;;1.40;;
9986;SDS011;5033;46.310;11.214;2023-05-07T13:30:34;2.17;;;1.48;;
9986;SDS011;5033;46.310;11.214;2023-05-07T13:33:01;1.58;;;1.48;;
9986;SDS011;5033;46.310;11.214;2023-05-07T13:35:28;1.25;;;1.20;;
9986;SDS011;5033;46.310;11.214;2023-05-07T13:37:55;1.30;;;1.20;;
9986;SDS011;5033;46.310;11.214;2023-05-07T13:40:22;3.13;;;1.50;;
9986;SDS011;5033;46.310;11.214;2023-05-07T13:42:49;1.77;;;1.30;;
9986;SDS011;5033;46.310;11.214;2023-05-07T13:45:16;1.45;;;1.35;;
9986;SDS011;5033;46.310;11.214;2023-05-07T13:47:45;2.00;;;1.33;;
9986;SDS011;5033;46.310;11.214;2023-05-07T13:50:14;1.30;;;1.15;;
9986;SDS011;5033;46.310;11.214;2023-05-07T13:52:42;1.40;;;1.30;;
9986;SDS011;5033;46.310;11.214;2023-05-07T13:55:15;1.67;;;1.58;;
9986;SDS011;5033;46.310;11.214;2023-05-07T13:57:42;2.00;;;1.42;;
9986;SDS011;5033;46.310;11.214;2023-05-07T14:00:10;2.72;;;2.15;;
9986;SDS011;5033;46.310;11.214;2023-05-07T14:02:38;2.03;;;1.90;;
9986;SDS011;5033;46.310;11.214;2023-05-07T14:05:07;2.40;;;1.80;;
9986;SDS011;5033;46.310;11.214;2023-05-07T14:07:35;3.03;;;1.80;;
9986;SDS011;5033;46.310;11.214;2023-05-07T14:10:02;2.17;;;1.98;;
9986;SDS011;5033;46.310;11.214;2023-05-07T14:12:29;1.95;;;1.80;;
9986;SDS011;5033;46.310;11.214;2023-05-07T14:14:56;1.90;;;1.80;;
9986;SDS011;5033;46.310;11.214;2023-05-07T14:17:23;2.20;;;1.98;;
9986;SDS011;5033;46.310;11.214;2023-05-07T14:19:52;2.97;;;2.45;;
9986;SDS011;5033;46.310;11.214;2023-05-07T14:22:21;2.25;;;2.05;;
9986;SDS011;5033;46.310;11.214;2023-05-07T14:24:48;3.08;;;2.20;;
9986;SDS011;5033;46.310;11.214;2023-05-07T14:27:16;2.90;;;2.10;;
9986;SDS011;5033;46.310;11.214;2023-05-07T14:29:43;2.42;;;2.22;;
9986;SDS011;5033;46.310;11.214;2023-05-07T14:32:10;2.22;;;2.03;;
9986;SDS011;5033;46.310;11.214;2023-05-07T14:34:37;2.85;;;2.50;;
9986;SDS011;5033;46.310;11.214;2023-05-07T14:37:04;2.53;;;2.30;;
9986;SDS011;5033;46.310;11.214;2023-05-07T14:39:33;2.53;;;2.22;;
9986;SDS011;5033;46.310;11.214;2023-05-07T14:41:59;2.72;;;2.53;;
9986;SDS011;5033;46.310;11.214;2023-05-07T14:44:26;3.45;;;2.80;;
9986;SDS011;5033;46.310;11.214;2023-05-07T14:46:53;3.20;;;2.30;;
9986;SDS011;5033;46.310;11.214;2023-05-07T14:49:21;4.93;;;2.10;;
9986;SDS011;5033;46.310;11.214;2023-05-07T14:51:48;3.30;;;3.03;;
9986;SDS011;5033;46.310;11.214;2023-05-07T14:54:15;3.33;;;3.03;;
9986;SDS011;5033;46.310;11.214;2023-05-07T14:56:44;3.22;;;2.92;;
9986;SDS011;5033;46.310;11.214;2023-05-07T14:59:11;3.30;;;3.00;;
9986;SDS011;5033;46.310;11.214;2023-05-07T15:01:38;3.40;;;3.20;;
9986;SDS011;5033;46.310;11.214;2023-05-07T15:04:10;3.33;;;3.03;;
9986;SDS011;5033;46.310;11.214;2023-05-07T15:06:37;3.00;;;2.70;;
9986;SDS011;5033;46.310;11.214;2023-05-07T15:09:04;5.82;;;3.00;;
9986;SDS011;5033;46.310;11.214;2023-05-07T15:11:31;3.05;;;2.78;;